Date,TemperatureHighF,TemperatureAvgF,TemperatureLowF,DewpointHighF,DewpointAvgF,DewpointLowF,HumidityHigh,HumidityAvg,HumidityLow,PressureMaxIn,PressureMinIn,WindSpeedMaxMPH,WindSpeedAvgMPH,GustSpeedMaxMPH,PrecipitationSumIn
2012-1-1,40.3,39.5,38.3,38.6,37.7,36.4,94,93,93,29.99,29.97,4,0,4,0.00
2012-1-3,24.9,20.0,15.8,9.9,4.5,-0.1,56,51,47,30.06,29.86,21,5,21,0.00
2012-1-4,26.0,20.1,13.5,14.2,7.3,-0.5,68,58,45,30.18,29.94,22,3,22,0.00
2012-1-5,38.6,31.0,22.0,25.4,19.9,13.6,76,64,54,29.94,29.77,20,2,22,0.00
2012-1-6,50.8,38.8,26.2,39.4,30.2,0.0,92,73,52,29.94,29.70,23,2,23,0.00
2012-1-7,61.0,44.7,28.6,41.7,33.7,25.1,94,69,39,29.92,29.67,21,2,21,0.00
2012-1-8,44.9,39.4,32.4,33.1,26.7,18.9,77,61,49,30.27,29.92,19,2,20,0.00
2012-1-9,40.1,32.8,28.2,21.7,18.9,0.0,72,58,36,30.29,30.13,12,1,12,0.00
2012-1-10,45.0,40.8,31.3,31.1,29.0,0.0,85,64,56,29.96,29.80,20,4,20,0.00
2012-1-11,45.7,34.7,23.0,40.3,27.3,19.2,92,75,52,30.08,29.86,13,1,13,0.01
2012-1-12,44.9,42.3,39.1,43.3,40.4,37.1,94,93,88,29.86,29.39,21,3,21,1.34
2012-1-13,50.6,37.9,27.6,48.7,30.1,14.3,95,74,53,29.76,29.25,36,7,36,0.01
2012-1-14,33.8,29.0,25.6,20.6,16.8,12.4,69,60,52,30.04,29.75,25,5,25,0.00
2012-1-15,25.6,19.1,14.8,13.6,4.5,-0.4,67,53,40,30.54,30.03,20,4,21,0.00
2012-1-16,39.2,27.1,11.0,32.2,17.0,3.8,83,66,44,30.58,30.15,25,5,30,0.03
2012-1-17,48.7,41.6,35.5,46.5,38.9,31.6,95,90,80,30.15,29.52,23,4,25,0.29
2012-1-18,50.1,37.1,22.9,46.8,23.3,8.4,90,58,45,30.15,29.53,30,5,31,0.00
2012-1-19,32.7,26.4,18.8,29.5,17.2,8.9,89,68,53,30.24,29.94,14,1,17,0.00
2012-1-20,34.9,29.2,24.7,30.1,18.1,12.0,89,64,49,30.26,29.91,25,2,25,0.00
2012-1-21,27.6,25.3,21.6,25.3,20.2,12.9,91,81,58,30.26,29.95,11,3,13,0.00
2012-1-22,32.4,26.7,18.6,28.3,21.8,13.8,86,82,77,30.51,30.26,11,2,11,0.01
2012-1-23,54.2,43.8,31.9,53.1,41.3,27.8,96,91,84,30.41,29.87,23,3,29,0.54
2012-1-24,54.0,47.4,40.3,49.4,41.5,32.2,95,81,61,30.07,29.86,23,4,23,0.01
2012-1-25,42.4,38.6,34.4,33.9,29.2,25.9,79,69,58,30.26,30.06,18,2,18,0.00
2012-1-26,41.8,35.9,32.3,40.2,32.2,27.0,94,87,73,30.20,29.82,7,0,7,0.22
2012-1-27,56.4,48.3,41.6,55.2,43.9,32.4,96,85,70,29.82,29.25,33,9,33,0.30
2012-1-28,45.9,40.1,31.0,36.1,31.4,22.8,87,71,48,30.02,29.76,24,3,28,0.01
2012-1-29,42.4,37.0,32.1,26.7,19.8,15.9,72,50,39,30.15,29.96,31,4,32,0.00
2012-1-30,40.7,34.4,26.0,29.9,20.6,16.1,73,57,43,30.29,29.96,29,4,29,0.00
2012-1-31,56.4,43.3,26.6,39.2,31.9,18.9,86,66,42,30.25,29.99,21,3,23,0.00
2012-2-1,61.2,52.8,46.4,45.9,40.7,35.3,88,64,55,29.99,29.81,26,4,26,0.06
2012-2-2,47.3,39.2,34.7,38.7,30.0,24.2,81,69,61,30.18,29.95,20,5,20,0.00
2012-2-3,39.2,32.7,26.7,24.9,20.1,16.4,74,60,42,30.40,30.17,18,3,21,0.00
2012-2-4,44.6,33.0,26.6,28.7,23.9,19.7,81,69,50,30.29,30.09,18,1,18,0.00
2012-2-5,35.9,30.4,21.2,23.1,18.5,15.4,78,61,47,30.15,30.07,11,1,12,0.00
2012-2-6,50.0,34.9,17.2,31.5,23.7,13.2,89,66,39,30.12,29.92,21,2,21,0.00
2012-2-7,47.2,38.3,26.9,32.4,28.1,22.2,89,67,51,30.20,29.90,9,1,14,0.00
2012-2-8,35.6,32.4,28.6,26.7,22.9,20.0,85,68,56,30.30,30.03,5,1,9,0.00
2012-2-9,42.7,32.2,23.8,27.1,22.4,16.6,88,69,42,30.11,30.00,19,2,19,0.01
2012-2-10,46.0,34.8,21.1,36.8,25.8,16.5,92,71,41,30.11,29.89,22,2,22,0.00
2012-2-11,38.0,34.8,31.8,33.1,29.6,20.0,92,82,60,29.89,29.50,19,3,19,0.10
2012-2-12,32.0,26.2,19.2,21.3,12.1,3.4,72,55,49,29.93,29.58,30,6,30,0.00
2012-2-13,41.9,31.8,23.3,20.8,17.2,10.0,68,55,39,30.00,29.87,27,4,28,0.00
2012-2-14,45.1,35.6,25.9,35.9,24.0,16.8,88,64,34,30.09,30.00,22,1,23,0.01
2012-2-15,44.9,40.9,35.4,40.5,35.8,32.5,92,82,76,30.24,30.05,10,2,10,0.02
2012-2-16,42.9,36.2,26.1,39.2,31.6,22.8,93,83,64,30.27,30.02,8,0,8,0.11
2012-2-17,49.9,42.7,28.9,43.9,34.6,22.4,95,74,51,29.97,29.85,20,5,20,0.14
2012-2-18,47.2,38.4,29.9,34.0,27.0,21.4,88,65,38,30.04,29.86,22,5,22,0.03
2012-2-19,42.8,35.9,27.4,31.4,25.6,19.3,89,67,45,30.05,29.92,14,2,14,0.00
2012-2-20,37.8,32.8,26.3,24.1,19.2,15.4,66,57,43,30.30,29.94,15,2,15,0.00
2012-2-21,44.9,33.8,18.1,39.6,25.8,13.5,90,73,51,30.33,29.83,22,2,22,0.04
2012-2-22,54.7,44.3,32.9,42.5,36.1,30.6,94,76,43,29.84,29.49,19,3,21,0.01
2012-2-23,59.0,48.3,36.1,45.1,36.8,26.9,92,67,42,29.76,29.34,30,4,30,0.00
2012-2-24,44.2,39.4,34.4,42.5,36.5,27.3,99,90,68,29.75,29.25,28,3,28,0.69
2012-2-25,46.2,39.5,31.9,37.9,24.7,14.4,94,56,40,29.93,29.34,39,10,39,0.00
2012-2-26,40.9,32.8,22.6,20.3,16.8,14.0,71,52,38,30.42,29.94,24,4,28,0.00
2012-2-27,50.6,37.3,19.2,38.4,28.4,13.9,90,71,55,30.42,30.03,27,4,27,0.00
2012-2-28,48.4,41.8,33.3,37.0,26.3,22.9,71,54,42,30.36,30.04,26,2,26,0.00
2012-2-29,44.2,38.1,31.6,38.2,31.6,22.8,94,78,60,30.36,29.76,14,1,14,0.31
2012-3-1,40.5,35.7,31.5,38.9,33.4,27.8,94,91,86,29.95,29.62,14,4,14,0.33
2012-3-2,39.4,34.0,29.9,37.3,29.9,25.7,92,85,81,30.12,29.82,12,1,14,0.13
2012-3-3,55.1,48.7,39.5,51.3,42.0,26.7,96,80,48,29.82,29.40,29,3,29,0.14
2012-3-4,44.2,39.5,33.7,29.0,25.0,21.7,67,56,43,29.69,29.52,16,2,19,0.00
2012-3-5,41.6,34.9,28.0,24.3,17.3,7.2,64,49,36,30.31,29.68,25,5,25,0.00
2012-3-6,33.4,26.3,23.1,14.5,11.3,8.7,61,53,45,30.59,30.31,17,3,17,0.00
2012-3-7,54.8,50.1,46.5,44.4,40.7,36.8,83,71,53,30.42,30.30,27,6,27,0.00
2012-3-8,62.9,54.4,47.4,51.1,47.7,43.7,92,79,65,30.31,29.80,37,9,37,0.00
2012-3-9,56.0,43.6,35.1,49.7,31.2,21.7,90,63,39,30.20,29.77,31,4,35,0.09
2012-3-10,41.1,33.3,23.8,21.7,17.0,11.7,71,52,41,30.51,30.20,27,2,27,0.00
2012-3-11,52.3,38.2,21.5,38.6,27.5,14.8,89,67,42,30.51,30.31,15,3,22,0.00
2012-3-12,70.5,50.4,32.8,47.7,38.5,28.6,91,67,33,30.31,30.12,17,2,17,0.00
2012-3-13,64.7,53.5,49.0,56.2,49.4,43.8,94,86,73,30.11,29.90,15,2,18,0.04
2012-3-14,68.3,55.8,43.6,51.4,41.1,28.8,95,64,26,30.18,29.92,20,2,21,0.00
2012-3-15,47.5,43.2,41.4,41.3,39.0,37.4,91,85,77,30.31,30.18,9,2,9,0.00
2012-3-16,45.4,42.8,40.8,43.2,39.9,37.0,93,89,86,30.28,30.08,11,1,11,0.04
2012-3-17,58.4,47.1,37.7,48.0,41.8,33.9,95,83,63,30.35,30.15,11,1,11,0.00
2012-3-18,64.4,46.9,33.2,51.5,41.7,30.3,94,83,61,30.34,30.17,12,1,14,0.00
2012-3-19,73.0,55.0,37.8,59.5,47.4,35.7,96,77,52,30.21,30.13,18,2,18,0.00
2012-3-20,73.8,57.9,46.0,61.8,52.7,39.6,95,83,64,30.30,30.20,11,1,12,0.00
2012-3-21,68.6,58.9,52.1,61.6,55.8,50.1,96,90,78,30.34,30.25,11,0,12,0.00
2012-3-22,76.7,61.9,54.6,62.7,56.9,52.7,96,85,59,30.26,30.03,14,2,15,0.01
2012-3-23,69.8,58.4,48.3,57.3,48.6,41.3,95,72,43,30.09,30.00,13,1,13,0.00
2012-3-24,60.9,52.9,46.9,44.5,34.5,26.9,87,53,28,30.08,29.96,13,1,14,0.00
2012-3-25,47.7,45.4,41.6,43.7,41.1,38.0,92,85,69,29.97,29.68,11,1,11,0.17
2012-3-26,52.9,45.4,34.2,47.2,27.8,10.2,94,54,33,30.03,29.64,27,8,27,0.00
2012-3-27,47.6,37.0,28.5,19.0,13.0,7.3,59,38,26,30.20,30.03,20,4,22,0.00
2012-3-28,59.8,45.1,28.7,49.4,36.2,17.3,92,71,58,30.14,29.51,27,2,27,0.11
2012-3-29,53.4,49.4,42.2,45.9,38.8,30.4,86,67,57,29.95,29.53,18,3,18,0.00
2012-3-30,53.9,44.7,38.8,35.4,26.3,15.9,72,51,23,30.04,29.92,14,2,19,0.00
2012-3-31,44.0,39.6,36.9,38.1,36.4,33.9,93,88,71,30.00,29.83,11,1,13,0.19
2012-4-1,53.2,43.8,38.3,42.6,38.4,35.9,93,82,57,29.87,29.59,16,1,18,0.20
2012-4-2,54.7,46.8,39.8,42.9,34.8,23.0,93,66,38,29.81,29.54,18,4,18,0.15
2012-4-3,59.7,46.0,29.6,31.6,25.1,21.1,77,46,25,29.88,29.71,18,2,21,0.00
2012-4-4,68.3,53.5,39.8,36.0,32.6,25.1,78,48,26,29.72,29.45,19,2,21,0.00
2012-4-5,55.7,47.2,40.4,33.6,30.4,27.8,67,53,36,29.84,29.67,19,3,19,0.00
2012-4-6,55.7,42.5,36.8,30.8,27.5,24.9,68,56,32,29.97,29.84,15,4,16,0.00
2012-4-7,59.7,49.1,38.6,36.1,27.5,22.8,63,44,27,30.01,29.89,18,2,19,0.00
2012-4-8,63.7,50.9,34.9,39.7,31.9,26.8,83,51,28,29.97,29.61,19,2,25,0.00
2012-4-9,64.1,54.5,41.7,37.2,29.2,24.2,58,39,24,29.66,29.56,37,6,37,0.00
2012-4-10,60.9,49.9,34.4,37.1,31.3,23.9,74,50,35,29.74,29.61,23,3,23,0.00
2012-4-11,55.7,46.9,35.6,39.2,34.1,29.1,85,62,44,29.84,29.71,16,2,16,0.00
2012-4-12,59.6,48.3,43.1,42.3,38.8,35.5,84,71,43,30.07,29.83,18,2,20,0.03
2012-4-13,63.4,50.4,36.5,39.7,35.9,29.6,92,61,29,30.17,30.05,18,3,18,0.00
2012-4-14,71.5,53.1,34.8,46.7,37.3,26.5,92,60,20,30.17,29.98,16,2,18,0.00
2012-4-15,76.0,64.0,53.0,59.7,53.1,46.1,86,69,51,30.00,29.90,19,2,20,0.02
2012-4-16,86.0,65.6,50.8,63.8,55.8,46.5,94,73,43,29.99,29.89,18,2,20,0.00
2012-4-17,79.8,66.3,53.4,59.8,47.7,39.0,94,57,26,30.12,29.87,18,2,18,0.00
2012-4-18,63.4,54.4,48.9,42.3,37.0,32.7,71,52,36,30.22,30.09,13,3,14,0.00
2012-4-19,68.3,53.7,46.1,51.5,45.6,41.4,92,75,50,30.10,29.98,16,2,16,0.05
2012-4-20,71.8,55.6,39.6,55.9,46.4,36.6,95,73,49,30.02,29.84,18,2,18,0.00
2012-4-21,73.9,62.0,54.4,60.7,56.3,52.3,94,83,61,29.84,29.66,21,3,21,0.00
2012-4-22,60.0,51.4,47.7,57.4,48.7,46.3,95,90,83,29.75,29.31,19,3,23,1.98
2012-4-23,60.2,52.6,46.3,59.1,48.9,39.5,96,87,71,29.39,29.15,25,5,25,1.05
2012-4-24,58.4,49.1,41.4,45.4,38.6,34.4,84,68,43,29.66,29.36,23,5,24,0.00
2012-4-25,63.7,49.5,34.1,45.0,37.3,30.5,92,66,33,29.88,29.66,20,2,20,0.00
2012-4-26,60.1,48.4,32.9,53.0,43.7,30.1,94,84,64,29.91,29.53,14,1,15,0.08
2012-4-27,56.6,49.4,40.5,53.8,37.0,26.4,95,64,43,30.08,29.52,30,5,35,0.00
2012-4-28,58.0,47.2,31.9,40.9,31.0,25.5,81,55,31,30.19,30.06,18,2,20,0.00
2012-4-29,63.1,52.1,42.2,38.0,28.6,19.4,66,41,26,30.20,30.01,23,2,23,0.00
2012-4-30,60.7,49.6,35.5,41.5,30.8,23.8,73,50,32,30.32,30.20,14,2,15,0.00
2012-5-1,62.6,53.4,49.4,60.0,49.2,41.5,95,86,71,30.20,29.92,15,2,15,0.79
2012-5-2,53.3,50.2,46.9,48.7,46.4,43.8,90,87,81,30.16,30.06,8,0,8,0.01
2012-5-3,53.7,51.4,49.4,52.0,49.3,47.3,95,93,89,30.16,30.07,7,0,7,0.31
2012-5-4,70.3,58.1,50.5,63.0,55.2,48.8,96,90,76,30.07,29.83,14,1,16,0.08
2012-5-5,59.3,55.1,52.6,56.4,52.9,50.0,96,92,88,30.02,29.86,7,0,7,0.00
2012-5-6,65.4,55.3,45.0,53.7,49.2,42.0,93,81,60,30.09,30.01,12,1,12,0.00
2012-5-7,68.8,54.8,41.4,53.5,45.9,39.0,95,74,52,30.12,30.07,15,2,15,0.00
2012-5-8,66.7,58.3,51.9,56.9,51.5,45.9,92,79,68,30.08,29.83,26,4,26,0.05
2012-5-9,60.8,59.2,57.1,59.7,57.9,55.5,96,95,92,29.83,29.54,21,3,21,1.57
2012-5-10,67.4,57.9,52.2,55.9,52.7,44.9,96,85,51,29.56,29.44,24,3,24,0.36
2012-5-11,69.4,57.4,44.1,43.7,39.5,34.7,81,54,32,30.06,29.78,23,7,23,0.04
2012-5-12,79.3,53.9,41.4,49.8,39.3,35.0,85,61,25,30.17,30.06,17,1,19,0.02
2012-5-13,80.3,64.1,49.3,59.9,52.6,45.6,93,69,33,30.15,30.07,18,2,18,0.00
2012-5-14,71.1,65.2,61.7,61.9,58.1,55.6,85,78,68,30.13,30.06,18,2,19,0.00
2012-5-15,65.4,62.3,60.8,60.9,58.2,54.8,96,87,76,30.12,29.92,17,2,18,0.28
2012-5-16,75.9,65.2,61.1,67.2,62.2,58.5,97,91,70,29.93,29.81,14,1,14,0.13
2012-5-17,70.4,60.6,49.0,59.7,47.1,41.1,94,64,37,30.11,29.85,15,1,15,0.02
2012-5-18,69.9,56.2,42.9,54.3,44.8,39.2,95,69,40,30.21,30.10,7,0,9,0.00
2012-5-19,78.2,60.0,45.0,56.8,46.9,39.2,93,65,38,30.15,30.07,7,0,7,0.01
2012-5-20,76.7,62.5,50.0,52.9,46.5,31.0,93,61,21,30.23,30.11,8,0,9,0.00
2012-5-21,63.6,60.9,58.0,61.4,58.2,52.3,95,91,78,30.20,29.98,6,0,8,0.01
2012-5-22,67.7,63.3,58.4,63.7,61.0,56.9,100,92,85,29.98,29.76,7,0,9,0.00
2012-5-23,72.5,64.8,59.3,65.9,61.5,56.6,96,89,77,30.03,29.82,10,0,11,0.01
2012-5-24,71.6,63.4,59.0,66.1,60.3,56.7,96,90,77,30.18,30.03,10,0,11,0.01
2012-5-25,71.4,65.3,60.1,69.8,63.8,58.2,97,95,92,30.18,30.09,11,0,11,0.00
2012-5-26,84.7,71.7,64.4,74.0,67.0,63.1,97,86,68,30.11,30.03,16,1,16,0.01
2012-5-27,79.8,69.9,64.5,68.3,63.7,59.2,94,81,62,30.13,29.99,10,0,10,0.00
2012-5-28,86.0,74.0,67.1,74.9,68.6,64.3,96,84,67,29.98,29.86,9,0,9,0.00
2012-5-29,87.5,74.2,63.3,76.1,68.6,61.5,97,84,65,29.88,29.68,21,2,21,0.00
2012-5-30,74.6,68.8,62.8,69.1,64.4,59.9,94,86,66,29.74,29.68,7,0,7,0.01
2012-5-31,79.7,69.2,61.1,62.3,58.0,54.0,95,71,43,29.89,29.67,13,0,13,0.00
2012-6-1,73.0,65.6,58.3,59.6,55.9,52.5,93,71,57,30.00,29.84,12,2,14,0.00
2012-6-2,74.3,66.4,59.3,69.2,61.6,54.1,97,85,58,29.84,29.62,25,2,25,0.00
2012-6-3,77.7,65.2,55.7,59.6,55.6,52.2,92,73,44,29.70,29.59,22,1,24,0.00
2012-6-4,60.9,55.9,52.1,56.1,49.5,46.1,90,79,68,29.76,29.57,11,2,11,0.01
2012-6-5,61.4,56.3,52.0,52.2,49.5,45.8,86,78,67,29.92,29.75,10,0,10,0.00
2012-6-6,71.2,59.8,46.7,58.3,52.3,43.9,95,78,52,29.96,29.90,11,0,12,0.00
2012-6-7,77.0,64.4,55.8,61.0,56.1,50.8,94,76,47,29.95,29.87,14,0,15,0.00
2012-6-8,82.4,66.3,52.1,63.4,57.3,49.6,95,75,45,29.90,29.78,13,0,14,0.01
2012-6-9,75.4,66.7,59.3,63.6,60.1,56.1,91,80,64,29.94,29.80,14,0,14,0.00
2012-6-10,81.5,69.1,58.9,67.0,61.8,56.1,95,79,55,30.17,29.93,11,0,12,0.00
2012-6-11,72.8,64.4,58.4,61.2,58.4,55.8,93,82,62,30.24,30.15,12,0,12,0.00
2012-6-12,72.7,65.1,59.9,64.4,61.5,57.4,95,88,74,30.18,29.91,17,1,18,0.00
2012-6-13,66.1,64.4,63.1,64.9,63.2,61.9,96,96,95,30.03,29.84,14,0,14,0.00
2012-6-14,72.6,65.0,56.0,65.0,61.1,52.8,96,88,72,30.22,30.03,12,0,12,0.02
2012-6-15,76.7,64.4,54.0,60.8,55.2,51.3,96,75,45,30.27,30.20,7,0,8,0.00
2012-6-16,76.5,64.0,53.6,63.0,56.3,50.7,95,77,52,30.30,30.21,12,0,13,0.00
2012-6-17,69.3,61.1,52.0,58.2,53.2,48.6,88,76,60,30.22,30.08,7,0,7,0.00
2012-6-18,70.5,60.0,51.6,59.6,54.1,48.4,92,82,66,30.13,30.08,11,0,11,0.00
2012-6-19,74.3,64.1,52.6,64.6,59.4,49.8,94,85,68,30.15,30.05,13,1,14,0.00
2012-6-20,95.0,79.9,65.0,78.2,71.0,62.0,95,76,52,30.05,29.87,16,1,16,0.00
2012-6-21,93.9,82.9,74.2,75.8,72.3,69.2,89,72,49,29.88,29.73,13,1,13,0.00
2012-6-22,90.2,76.9,70.2,76.6,70.9,68.1,93,83,58,29.78,29.68,14,0,15,0.12
2012-6-23,85.3,74.0,66.6,68.2,64.7,58.7,95,75,45,29.94,29.76,14,1,15,0.19
2012-6-24,83.4,71.5,59.3,64.8,60.0,52.5,93,69,35,29.97,29.86,12,0,12,0.00
2012-6-25,77.3,66.7,61.6,68.0,63.1,56.0,96,89,68,29.89,29.61,22,1,22,2.52
2012-6-26,72.3,64.2,56.9,59.5,54.6,50.1,82,71,61,29.71,29.61,16,2,22,0.00
2012-6-27,81.7,69.6,57.8,58.4,53.9,50.4,82,59,38,29.76,29.65,21,2,23,0.00
2012-6-28,86.3,71.4,57.5,67.7,60.1,51.3,91,70,41,29.78,29.68,16,1,16,0.00
2012-6-29,92.5,82.3,65.0,78.8,72.9,62.3,95,75,56,29.69,29.57,13,2,14,0.14
2012-6-30,92.8,78.6,68.9,73.3,68.0,61.2,92,72,38,29.74,29.62,14,1,15,0.00
2012-7-1,92.3,75.9,64.4,75.4,68.1,61.6,96,79,52,29.80,29.71,17,1,17,0.09
2012-7-2,86.0,74.1,64.9,67.4,64.1,61.3,93,73,49,29.87,29.80,12,0,12,0.00
2012-7-3,87.5,72.8,60.0,69.2,63.5,57.1,95,75,48,29.92,29.80,10,0,10,0.00
2012-7-4,88.6,76.6,71.5,75.4,71.2,69.2,93,84,61,29.82,29.68,12,1,13,0.04
2012-7-5,87.5,78.4,71.5,73.7,69.2,62.4,94,75,46,29.82,29.65,8,0,8,0.00
2012-7-6,88.8,76.9,67.5,72.6,68.3,64.2,94,77,46,29.90,29.82,10,0,11,0.00
2012-7-7,91.5,79.7,73.2,76.0,71.6,68.7,93,77,55,29.84,29.73,16,1,17,0.00
2012-7-8,89.5,78.2,71.4,71.2,68.0,61.9,90,73,42,29.83,29.76,12,0,12,0.00
2012-7-9,83.8,73.8,65.9,67.4,61.8,57.8,86,67,45,29.94,29.82,8,0,9,0.00
2012-7-10,83.0,71.5,63.1,68.4,62.6,59.8,92,75,51,30.06,29.93,9,0,10,0.00
2012-7-11,84.5,72.1,62.9,69.1,64.6,60.1,96,79,51,30.16,30.05,10,0,11,0.00
2012-7-12,87.0,72.6,61.3,70.2,63.9,59.0,96,76,50,30.17,30.11,13,1,14,0.00
2012-7-13,86.1,73.3,63.2,71.8,66.1,60.0,95,79,57,30.17,30.12,9,0,10,0.00
2012-7-14,88.4,77.4,70.6,69.1,66.8,62.2,91,72,49,30.15,30.08,16,1,17,0.00
2012-7-15,84.5,76.0,68.9,76.9,71.1,65.4,95,85,71,30.12,29.87,12,0,13,0.85
2012-7-16,89.3,78.1,70.2,75.7,71.7,68.7,96,82,56,29.88,29.74,16,1,16,0.01
2012-7-17,92.0,80.0,69.2,74.2,70.5,67.1,95,75,48,29.80,29.70,20,1,20,0.00
2012-7-18,98.5,82.1,72.8,82.6,73.7,69.9,94,77,51,29.83,29.71,14,1,14,0.20
2012-7-19,75.5,71.5,67.5,72.5,66.2,62.4,96,84,68,29.96,29.82,6,0,7,0.00
2012-7-20,68.2,63.9,61.1,64.4,61.6,59.3,95,92,86,30.02,29.92,5,0,6,0.79
2012-7-21,76.2,66.0,59.0,63.6,59.9,55.5,96,82,53,30.10,30.00,7,0,8,0.00
2012-7-22,82.0,67.5,54.4,67.2,59.8,52.2,96,78,54,30.14,30.08,12,1,13,0.01
2012-7-23,83.8,73.3,65.2,74.7,69.1,61.9,95,87,72,30.10,29.80,21,2,21,0.07
2012-7-24,89.7,75.7,72.0,74.7,71.1,65.4,94,87,56,29.77,29.53,18,2,18,0.01
2012-7-25,83.0,73.0,66.1,65.5,60.0,55.3,84,65,46,29.85,29.67,14,1,15,0.00
2012-7-26,87.0,74.8,67.6,77.3,69.8,63.0,94,85,72,29.77,29.59,19,2,20,0.26
2012-7-27,87.5,77.5,70.2,75.5,71.9,68.7,96,84,64,29.83,29.61,18,1,19,0.00
2012-7-28,74.2,70.6,67.4,72.1,69.0,66.2,97,95,92,29.92,29.83,6,0,7,2.33
2012-7-29,76.9,69.7,66.6,71.0,67.2,64.2,97,92,76,30.03,29.86,4,0,5,0.01
2012-7-30,77.7,68.9,62.7,69.5,64.5,60.9,96,87,70,30.09,30.02,9,0,9,0.00
2012-7-31,71.7,68.4,63.7,68.0,65.4,61.3,95,90,85,30.08,29.87,5,0,5,0.00
2012-8-1,83.2,71.8,61.2,73.8,67.8,59.5,97,88,70,29.91,29.81,13,1,14,0.00
2012-8-2,87.0,76.7,69.9,75.7,71.8,68.4,96,86,62,29.89,29.80,11,0,11,0.01
2012-8-3,87.3,79.1,73.4,78.5,74.8,71.6,96,87,71,30.07,29.89,12,1,12,0.00
2012-8-4,88.7,78.5,73.3,78.4,74.8,71.5,96,89,64,30.17,30.07,11,0,11,0.00
2012-8-5,86.9,81.5,72.9,79.3,76.3,70.5,94,85,77,30.11,29.93,23,4,23,0.16
2012-8-6,84.4,76.1,68.2,73.6,69.1,63.1,96,81,53,29.98,29.91,17,1,19,0.24
2012-8-7,79.0,70.2,62.1,67.8,64.3,59.7,95,83,62,29.99,29.93,6,0,7,0.00
2012-8-8,82.2,72.7,63.2,74.5,68.8,61.4,97,88,72,29.97,29.90,10,0,10,0.00
2012-8-9,86.5,75.9,69.0,76.5,71.5,67.0,97,87,69,29.93,29.84,13,1,15,0.00
2012-8-10,81.3,76.4,71.4,76.3,73.8,69.3,96,92,84,29.89,29.70,22,1,25,1.89
2012-8-11,84.9,77.6,73.3,78.4,74.2,69.4,97,90,74,29.89,29.76,18,1,18,0.06
2012-8-12,85.2,77.0,71.3,76.0,72.0,68.5,95,85,66,29.90,29.84,13,0,13,0.03
2012-8-13,84.7,73.1,62.6,69.4,65.7,60.5,96,79,50,29.95,29.89,13,1,15,0.00
2012-8-14,83.5,72.4,63.1,71.9,67.2,60.8,96,84,61,29.94,29.86,12,0,13,0.00
2012-8-15,76.3,70.8,66.7,73.8,68.7,65.1,97,93,87,29.88,29.79,10,0,10,0.94
2012-8-16,82.7,70.8,65.6,71.0,66.6,62.9,96,87,58,29.85,29.80,12,0,13,0.01
2012-8-17,85.9,73.4,60.6,73.3,66.6,58.3,96,81,62,29.85,29.75,19,1,19,0.00
2012-8-18,72.7,67.1,62.8,68.7,64.1,60.3,96,90,80,29.90,29.79,5,0,6,1.10
2012-8-19,71.7,65.0,57.5,63.3,60.1,55.8,95,85,67,29.94,29.88,6,0,6,0.00
2012-8-20,75.0,66.9,60.8,65.7,62.4,58.9,95,86,70,29.91,29.82,0,0,0,0.00
2012-8-21,78.7,69.0,62.7,66.6,62.9,58.9,94,82,53,30.07,29.89,8,0,8,0.00
2012-8-22,80.0,68.8,59.4,69.0,63.3,57.4,97,84,58,30.12,30.05,13,0,13,0.02
2012-8-23,81.7,69.0,58.4,72.0,64.0,56.4,97,85,63,30.14,30.08,11,0,11,0.00
2012-8-24,82.5,70.7,61.1,72.0,65.9,59.1,96,85,60,30.16,30.08,6,0,6,0.00
2012-8-25,82.0,71.0,64.8,72.1,64.8,60.9,97,82,57,30.26,30.16,9,0,9,0.00
2012-8-26,78.9,71.1,61.5,69.4,64.4,58.8,96,80,62,30.29,30.20,8,0,8,0.00
2012-8-27,83.5,70.1,59.0,73.7,66.7,57.0,97,89,66,30.20,29.92,16,1,16,0.23
2012-8-28,84.8,76.9,70.9,73.8,70.4,62.1,96,81,62,29.92,29.74,20,1,21,0.18
2012-8-29,75.5,68.8,58.1,63.2,56.9,52.5,84,67,49,29.98,29.84,9,0,11,0.00
2012-8-30,80.2,65.1,53.0,61.5,56.2,50.4,95,76,40,30.06,29.98,15,0,15,0.00
2012-8-31,90.7,73.7,59.8,71.8,64.3,57.5,94,75,42,30.02,29.84,21,1,21,0.00
2012-9-1,85.2,74.1,66.9,72.6,67.1,63.6,90,79,64,30.05,29.86,11,0,11,0.00
2012-9-2,80.8,71.2,64.8,70.9,66.4,62.1,93,85,68,30.07,29.98,8,0,8,0.00
2012-9-3,76.1,69.8,66.5,67.1,64.8,61.8,95,85,65,30.14,30.06,7,0,7,0.00
2012-9-4,77.9,73.2,68.8,74.6,71.2,65.2,97,94,87,30.08,29.84,17,1,17,3.82
2012-9-5,80.5,75.6,70.2,76.9,73.8,68.4,96,94,87,29.84,29.72,19,2,20,1.05
2012-9-6,76.1,71.6,67.9,73.0,69.5,66.1,97,93,88,29.87,29.77,5,0,6,0.00
2012-9-7,85.8,73.3,64.5,75.6,69.4,63.1,97,88,68,29.90,29.82,13,0,13,0.00
2012-9-8,80.7,74.4,64.6,75.8,71.6,62.3,96,91,82,29.85,29.58,25,3,25,0.20
2012-9-9,74.2,66.3,60.4,63.0,60.5,56.9,95,83,59,29.83,29.71,11,0,11,0.12
2012-9-10,70.7,65.1,60.1,59.8,52.6,45.6,81,65,50,30.08,29.82,15,1,15,0.00
2012-9-11,70.5,60.3,50.7,56.6,49.7,44.4,90,69,51,30.25,30.08,11,0,11,0.00
2012-9-12,77.5,61.0,47.4,61.8,54.4,45.2,97,81,50,30.33,30.25,11,0,11,0.00
2012-9-13,78.5,64.1,52.7,66.7,58.6,50.7,96,83,63,30.34,30.25,10,0,13,0.00
2012-9-14,77.0,59.5,53.5,65.6,56.1,51.4,96,89,64,30.26,30.16,12,0,12,0.00
2012-9-17,75.9,65.9,53.3,61.7,56.2,50.1,95,72,55,30.08,30.00,10,0,10,0.00
2012-9-18,76.7,67.7,52.6,71.1,64.4,49.8,96,89,82,30.02,29.67,33,4,35,1.16
2012-9-19,69.1,63.9,56.7,66.9,55.3,45.2,95,75,54,30.14,29.69,14,1,14,0.00
2012-9-20,69.5,60.3,52.3,58.9,53.4,49.2,90,78,65,30.17,30.09,8,0,11,0.00
2012-9-21,69.4,58.8,51.3,59.4,54.0,48.8,96,85,64,30.09,29.98,5,0,5,0.00
2012-9-22,73.8,61.2,46.4,68.1,57.5,44.2,96,88,70,29.99,29.78,18,2,18,0.01
2012-9-23,67.8,61.2,49.1,62.6,52.9,44.6,95,76,51,30.07,29.80,14,0,14,0.01
2012-9-24,67.0,54.2,45.0,50.7,45.9,41.9,94,75,46,30.11,30.05,15,0,15,0.00
2012-9-25,71.3,56.7,39.3,56.4,48.9,37.0,96,77,54,30.17,30.11,22,2,23,0.00
2012-9-26,73.8,67.0,59.0,65.6,61.5,54.8,91,83,73,30.12,29.98,17,2,20,0.00
2012-9-27,73.8,66.1,60.2,65.5,62.6,57.9,95,89,67,30.15,30.00,7,0,8,0.02
2012-9-28,70.4,63.7,59.0,67.7,61.2,56.9,95,92,87,30.15,29.90,18,1,19,0.27
2012-9-29,59.2,57.9,54.9,58.1,56.6,53.1,96,95,94,29.90,29.83,3,0,3,0.11
2012-9-30,66.2,56.1,51.0,58.4,53.7,49.3,96,92,73,29.84,29.73,14,0,19,0.21
2012-10-1,68.7,56.4,47.2,56.4,51.0,45.6,96,83,60,29.94,29.77,22,1,24,0.00
2012-10-2,69.0,60.8,52.6,64.5,58.3,50.3,96,92,71,30.01,29.93,7,0,7,0.19
2012-10-3,69.6,67.1,65.5,68.7,66.0,64.4,97,96,96,30.08,29.94,4,0,4,0.01
2012-10-4,69.3,67.8,67.1,68.4,66.8,66.1,97,97,96,30.10,30.02,5,0,5,0.01
2012-10-6,65.3,60.9,55.9,57.9,52.1,45.1,77,73,67,29.94,29.81,20,3,20,0.00
2012-10-7,56.0,51.6,45.6,49.8,45.6,41.6,93,81,62,30.07,29.94,8,0,13,0.24
2012-10-8,53.2,48.8,43.5,48.2,45.3,41.6,95,88,72,30.26,30.06,7,0,8,0.01
2012-10-9,55.4,53.6,47.5,54.2,51.7,45.3,96,93,87,30.21,30.05,8,0,11,0.05
2012-10-10,69.7,59.0,53.7,64.7,55.3,45.6,97,88,69,30.05,29.74,18,0,21,0.43
2012-10-11,57.7,50.9,41.5,45.6,40.5,37.8,90,69,50,30.14,29.87,20,2,21,0.00
2012-10-12,55.3,46.5,38.0,47.1,37.7,27.1,96,73,45,30.37,30.02,21,1,21,0.00
2012-10-13,50.6,43.6,34.7,37.5,31.0,24.6,86,62,44,30.49,30.28,12,0,12,0.00
2012-10-14,67.6,58.8,40.0,58.7,52.1,36.2,94,79,65,30.28,29.94,25,3,25,0.00
2012-10-15,71.3,65.7,60.5,63.4,61.2,57.9,92,85,75,29.94,29.60,21,3,22,0.02
2012-10-16,60.5,54.4,44.8,58.2,45.9,40.5,94,74,55,29.87,29.57,16,1,16,0.03
2012-10-17,57.2,49.9,43.2,47.8,42.4,38.8,90,76,62,29.98,29.86,8,0,8,0.00
2012-10-18,64.8,50.8,37.6,55.1,46.3,35.5,96,85,62,30.03,29.94,12,0,12,0.00
2012-10-19,66.5,63.9,57.5,65.3,62.4,54.9,96,95,90,29.94,29.66,21,1,21,1.11
2012-10-20,72.0,63.7,55.9,63.8,57.5,42.7,97,82,51,29.78,29.62,20,1,20,0.00
2012-10-21,62.9,54.7,46.0,47.8,44.7,41.7,87,70,54,29.96,29.78,16,2,19,0.00
2012-10-22,63.6,54.9,46.5,49.5,46.1,42.1,89,73,54,30.04,29.94,18,1,18,0.00
2012-10-23,64.2,54.1,43.7,54.0,48.4,41.2,95,82,52,30.09,30.01,6,0,7,0.08
2012-10-24,56.8,55.1,53.5,55.0,52.3,50.1,96,90,84,30.17,30.06,6,0,7,0.02
2012-10-25,60.7,56.0,52.7,53.0,51.1,49.9,91,84,71,30.25,30.17,2,0,2,0.00
2012-10-26,66.4,59.7,54.4,59.0,55.1,51.6,94,85,74,30.21,30.08,7,0,7,0.00
2012-10-27,65.0,59.6,56.4,57.0,53.9,44.6,90,82,62,30.09,29.88,6,0,8,0.00
2012-10-28,59.2,57.1,54.6,52.9,51.0,43.6,85,80,60,29.89,29.60,18,5,18,0.00
2012-10-29,61.8,56.8,53.6,60.6,54.0,49.8,96,91,84,29.60,28.70,29,6,31,0.24
2012-10-31,52.1,48.6,45.5,47.4,42.1,38.5,90,79,65,29.56,29.44,19,3,19,0.24
2012-11-1,53.6,46.9,38.1,42.7,39.1,34.5,92,75,61,29.57,29.51,18,4,18,0.21
2012-11-2,53.4,48.4,44.5,41.7,38.6,33.5,82,69,53,29.68,29.54,18,2,21,0.00
2012-11-3,52.4,46.1,42.0,37.3,34.8,32.4,75,65,53,29.86,29.67,22,2,22,0.00
2012-11-4,51.3,44.4,39.4,37.5,34.5,32.6,78,68,57,29.93,29.86,15,1,15,0.00
2012-11-6,40.4,40.3,40.3,32.7,32.4,31.7,74,73,72,30.05,30.05,13,2,13,0.00
2012-11-7,41.6,37.7,32.8,36.0,33.0,29.0,93,83,65,30.05,29.67,22,6,22,0.26
2012-11-8,41.2,37.4,33.9,34.8,32.9,31.6,92,84,74,29.68,29.65,18,4,21,0.22
2012-11-9,51.5,47.7,42.3,35.6,30.9,25.2,71,53,41,30.15,29.97,15,2,17,0.00
2012-11-10,54.2,45.5,35.1,42.6,38.3,31.3,93,76,59,30.41,30.15,9,0,9,0.00
2012-11-11,62.7,50.3,35.5,51.4,45.0,32.3,95,83,62,30.47,30.39,20,2,22,0.00
2012-11-12,67.5,57.6,44.3,60.6,53.9,41.9,96,88,72,30.45,30.17,20,2,20,0.00
2012-11-13,63.4,50.7,41.5,60.7,45.6,31.4,92,83,66,30.39,30.10,24,3,24,0.09
2012-11-14,46.9,42.1,38.9,34.6,31.2,28.1,77,65,57,30.47,30.39,13,1,13,0.00
2012-11-15,41.2,38.2,32.7,34.0,31.3,27.6,86,76,61,30.42,30.26,9,1,11,0.00
2012-11-16,45.8,40.1,32.1,34.1,31.3,28.4,92,71,56,30.39,30.24,8,0,8,0.00
2012-11-17,48.9,40.7,29.0,36.4,31.8,25.0,86,71,57,30.61,30.39,9,1,9,0.00
2012-11-18,48.8,38.9,28.9,40.5,33.1,25.7,94,80,64,30.64,30.54,11,0,13,0.00
2012-11-19,48.1,43.8,39.5,41.9,38.4,35.5,87,81,76,30.54,30.20,6,0,10,0.00
2012-11-20,47.9,41.7,35.7,40.8,37.2,32.5,92,84,73,30.21,30.08,7,0,7,0.00
2012-11-21,50.4,43.1,35.8,40.2,36.7,31.8,91,79,59,30.20,30.10,8,0,8,0.00
2012-11-22,52.9,44.0,31.5,45.1,39.2,28.4,92,83,67,30.23,30.10,7,0,7,0.00
2012-11-23,54.1,41.6,29.3,48.1,38.1,26.5,95,88,75,30.10,29.64,15,1,15,0.00
2012-11-24,47.3,41.8,35.4,45.7,28.5,19.4,94,61,44,29.76,29.59,29,6,32,0.01
2012-11-25,41.2,36.4,32.6,25.2,22.6,19.0,68,57,49,29.93,29.76,28,5,28,0.00
2012-11-26,47.2,36.5,26.1,28.9,24.5,20.4,81,62,45,30.23,29.92,20,1,22,0.00
2012-11-27,39.7,34.7,25.7,35.1,31.5,20.7,93,88,76,30.28,30.15,11,1,11,0.72
2012-11-28,40.9,37.0,29.6,34.5,29.8,23.9,92,76,58,30.21,30.10,15,2,15,0.01
2012-11-29,44.2,37.0,29.2,28.4,25.9,23.8,82,65,46,30.30,30.20,20,3,20,0.00
2012-11-30,44.9,35.5,25.8,35.8,28.6,21.9,92,76,61,30.43,30.27,11,1,13,0.00
2012-12-1,45.6,40.3,37.2,43.7,36.8,32.1,100,87,80,30.50,30.38,13,1,14,0.00
2012-12-2,55.1,47.7,42.1,48.9,44.8,40.2,95,90,73,30.38,30.07,19,2,19,0.02
2012-12-3,56.3,48.2,34.5,51.7,44.5,31.5,96,87,73,30.25,30.06,13,1,14,0.00
2012-12-4,59.2,48.1,32.5,59.0,46.3,29.9,100,93,89,30.26,29.97,20,2,20,0.06
2012-12-5,55.4,48.9,35.5,52.0,40.4,23.7,94,73,54,30.17,29.87,24,4,24,0.01
2012-12-6,36.5,30.4,21.0,24.9,20.6,17.1,85,67,57,30.32,30.16,19,1,25,0.00
2012-12-7,47.0,37.1,20.2,42.8,33.6,16.7,93,87,74,30.26,30.00,10,0,10,0.07
2012-12-8,50.0,47.4,44.7,48.9,46.1,42.8,100,95,93,30.00,29.83,9,0,11,0.37
2012-12-9,48.3,44.6,41.8,46.9,42.2,38.1,96,91,80,30.22,29.95,11,0,11,0.29
2012-12-10,58.4,55.8,47.5,57.6,55.0,46.4,97,97,96,29.98,29.51,22,4,24,0.88
2012-12-11,55.0,44.7,38.2,54.2,39.4,30.3,100,82,68,30.16,29.53,14,1,14,0.07
2012-12-12,41.4,35.9,29.8,30.5,28.0,25.8,88,73,60,30.40,30.15,8,0,11,0.00
2012-12-13,42.5,33.9,25.4,31.8,27.2,22.1,89,77,58,30.39,30.28,6,0,6,0.00
2012-12-14,48.6,33.4,22.5,32.5,25.5,19.7,93,75,47,30.28,30.09,21,1,21,0.00
2012-12-15,43.9,36.2,27.5,33.4,29.1,24.1,92,76,61,30.29,30.19,11,1,11,0.00
2012-12-16,43.8,41.8,36.2,42.0,38.6,33.0,95,88,81,30.21,29.88,16,2,16,0.13
2012-12-17,47.0,43.6,41.3,45.9,42.3,39.9,96,95,95,29.89,29.62,15,1,18,0.46
2012-12-18,50.4,47.9,44.0,49.1,45.7,37.9,97,92,79,29.62,29.42,21,2,21,1.15
2012-12-19,47.8,42.9,38.3,38.2,32.2,28.0,80,66,57,30.06,29.51,26,5,26,0.00
2012-12-20,43.8,39.4,35.1,40.1,31.9,27.7,88,75,66,30.18,29.85,13,1,15,0.00
2012-12-21,56.6,46.0,36.9,55.2,40.7,28.6,95,82,67,29.86,29.08,33,7,43,1.26
2012-12-22,38.4,36.1,34.4,31.6,25.7,20.7,85,66,54,29.74,29.28,38,8,38,0.00
2012-12-23,42.2,35.4,26.3,28.6,24.5,20.6,80,65,54,29.92,29.74,23,4,26,0.00
2012-12-24,37.9,33.5,26.5,31.0,24.8,20.9,91,71,60,30.06,29.89,14,0,16,0.04
2012-12-25,38.8,35.5,31.7,37.2,31.8,23.0,94,87,70,30.21,29.86,15,2,15,0.21
2012-12-26,41.2,33.6,28.5,39.6,28.7,21.3,94,82,70,30.25,29.49,27,3,27,0.66
2012-12-27,45.0,38.2,31.0,43.4,35.2,24.0,94,89,75,29.73,29.19,28,6,28,0.42
2012-12-28,37.7,32.5,27.4,28.5,24.7,21.1,84,73,65,30.03,29.73,24,2,24,0.00
2012-12-29,37.5,31.3,25.1,35.4,28.7,21.5,94,90,84,30.02,29.41,12,1,13,0.37
2012-12-30,33.1,30.0,27.6,32.0,22.7,16.2,100,74,61,30.08,29.47,30,4,30,0.00
2012-12-31,36.9,31.4,24.2,26.2,22.1,16.3,78,68,63,30.12,29.82,21,3,23,0.02
2013-1-1,38.9,35.8,27.3,30.5,25.8,16.4,73,67,58,29.95,29.77,24,4,24,0.04